METAR Data
IDs: Format: Raw Decoded Include TAF

Data at: 1951 UTC 17 Nov 2019

METAR for:KCVO (Corvallis Muni, OR, US)
Text:KCVO 171856Z AUTO 00000KT 10SM -RA FEW060 OVC095 11/10 A3024 RMK AO2 RAB27 SLP242 P0000 T01060100
Temperature: 10.6°C ( 51°F)
Dewpoint: 10.0°C ( 50°F) [RH = 96%]
Pressure (altimeter):30.24 inches Hg (1024.1 mb) [Sea level pressure: 1024.2 mb]
Winds:calm
Visibility:10 or more sm (16+ km)
Ceiling:9500 feet AGL
Clouds: few clouds at 6000 feet AGL, overcast cloud deck at 9500 feet AGL
Weather:-RA (light rain)
QC Flag:automated observation with no human augmentation
Text:KCVO 171756Z AUTO 00000KT 10SM OVC100 10/09 A3024 RMK AO2 SLP243 T01000089 10100 20067 51013
Temperature: 10.0°C ( 50°F)
Dewpoint: 8.9°C ( 48°F) [RH = 93%]
Pressure (altimeter):30.24 inches Hg (1024.1 mb) [Sea level pressure: 1024.3 mb]
Winds:calm
Visibility:10 or more sm (16+ km)
Ceiling:10000 feet AGL
Clouds: overcast cloud deck at 10000 feet AGL
QC Flag:automated observation with no human augmentation
Text:KCVO 171656Z AUTO 00000KT 10SM BKN110 09/09 A3024 RMK AO2 SLP241 T00890089
Temperature: 8.9°C ( 48°F)
Dewpoint: 8.9°C ( 48°F) [RH = 100%]
Pressure (altimeter):30.24 inches Hg (1024.1 mb) [Sea level pressure: 1024.1 mb]
Winds:calm
Visibility:10 or more sm (16+ km)
Ceiling:11000 feet AGL
Clouds: broken clouds at 11000 feet AGL
QC Flag:automated observation with no human augmentation
Text:KCVO 171556Z AUTO 00000KT 10SM SCT120 07/07 A3023 RMK AO2 SLP240 T00720072
Temperature: 7.2°C ( 45°F)
Dewpoint: 7.2°C ( 45°F) [RH = 100%]
Pressure (altimeter):30.23 inches Hg (1023.8 mb) [Sea level pressure: 1024.0 mb]
Winds:calm
Visibility:10 or more sm (16+ km)
Ceiling:at least 12,000 feet AGL
Clouds: scattered clouds at 12000 feet AGL
QC Flag:automated observation with no human augmentation
Text:KCVO 171456Z AUTO 00000KT 7SM CLR 07/07 A3021 RMK AO2 SLP230 T00670067 53004
Temperature: 6.7°C ( 44°F)
Dewpoint: 6.7°C ( 44°F) [RH = 100%]
Pressure (altimeter):30.21 inches Hg (1023.1 mb) [Sea level pressure: 1023.0 mb]
Winds:calm
Visibility: 7 sm ( 11 km)
Ceiling:at least 12,000 feet AGL
Clouds:sky clear below 12,000 feet AGL
QC Flag:automated observation with no human augmentation
Text:KCVO 171426Z AUTO 32004KT 8SM SCT001 07/07 A3021 RMK AO2
Temperature: 7.0°C ( 45°F)
Dewpoint: 7.0°C ( 45°F) [RH = 100%]
Pressure (altimeter):30.21 inches Hg (1023.1 mb)
Winds:from the NW (320 degrees) at 5 MPH (4 knots; 2.1 m/s)
Visibility: 8 sm ( 13 km)
Ceiling:at least 12,000 feet AGL
Clouds: scattered clouds at 100 feet AGL
QC Flag:automated observation with no human augmentation
Text:KCVO 171418Z AUTO 32005KT 2SM BR BKN001 07/07 A3021 RMK AO2
Temperature: 7.0°C ( 45°F)
Dewpoint: 7.0°C ( 45°F) [RH = 100%]
Pressure (altimeter):30.21 inches Hg (1023.1 mb)
Winds:from the NW (320 degrees) at 6 MPH (5 knots; 2.6 m/s)
Visibility: 2.00 sm ( 3.22 km)
Ceiling:100 feet AGL
Clouds: broken clouds at 100 feet AGL
Weather:BR (mist)
QC Flag:automated observation with no human augmentation
Text:KCVO 171414Z AUTO 33006KT 1SM BR OVC001 07/07 A3021 RMK AO2 RVRNO
Temperature: 7.0°C ( 45°F)
Dewpoint: 7.0°C ( 45°F) [RH = 100%]
Pressure (altimeter):30.21 inches Hg (1023.1 mb)
Winds:from the NNW (330 degrees) at 7 MPH (6 knots; 3.1 m/s)
Visibility: 1.00 sm ( 1.61 km)
Ceiling:100 feet AGL
Clouds: overcast cloud deck at 100 feet AGL
Weather:BR (mist)
QC Flag:automated observation with no human augmentation
Text:KCVO 171356Z AUTO 00000KT 1/2SM FG OVC001 07/07 A3019 RMK AO2 SLP225 T00670067 RVRNO
Temperature: 6.7°C ( 44°F)
Dewpoint: 6.7°C ( 44°F) [RH = 100%]
Pressure (altimeter):30.19 inches Hg (1022.4 mb) [Sea level pressure: 1022.5 mb]
Winds:calm
Visibility: 0.50 sm ( 0.80 km)
Ceiling:100 feet AGL
Clouds: overcast cloud deck at 100 feet AGL
Weather:FG (fog)
QC Flag:automated observation with no human augmentation
Text:KCVO 171305Z AUTO 00000KT 1/4SM FG OVC001 07/07 A3019 RMK AO2 RVRNO
Temperature: 7.0°C ( 45°F)
Dewpoint: 7.0°C ( 45°F) [RH = 100%]
Pressure (altimeter):30.19 inches Hg (1022.4 mb)
Winds:calm
Visibility: 0.25 sm ( 0.40 km)
Ceiling:100 feet AGL
Clouds: overcast cloud deck at 100 feet AGL
Weather:FG (fog)
QC Flag:automated observation with no human augmentation
Text:KCVO 171256Z AUTO 00000KT 1/2SM FG OVC001 07/07 A3020 RMK AO2 SLP228 T00720067 RVRNO
Temperature: 7.2°C ( 45°F)
Dewpoint: 6.7°C ( 44°F) [RH = 97%]
Pressure (altimeter):30.20 inches Hg (1022.8 mb) [Sea level pressure: 1022.8 mb]
Winds:calm
Visibility: 0.50 sm ( 0.80 km)
Ceiling:100 feet AGL
Clouds: overcast cloud deck at 100 feet AGL
Weather:FG (fog)
QC Flag:automated observation with no human augmentation
Text:KCVO 171220Z AUTO 00000KT 1/2SM FG OVC001 07/07 A3019 RMK AO2 RVRNO
Temperature: 7.0°C ( 45°F)
Dewpoint: 7.0°C ( 45°F) [RH = 100%]
Pressure (altimeter):30.19 inches Hg (1022.4 mb)
Winds:calm
Visibility: 0.50 sm ( 0.80 km)
Ceiling:100 feet AGL
Clouds: overcast cloud deck at 100 feet AGL
Weather:FG (fog)
QC Flag:automated observation with no human augmentation
Text:KCVO 171156Z AUTO 11003KT 1/4SM FG OVC001 07/07 A3019 RMK AO2 SLP227 T00720072 10089 20061 56016 RVRNO
Temperature: 7.2°C ( 45°F)
Dewpoint: 7.2°C ( 45°F) [RH = 100%]
Pressure (altimeter):30.19 inches Hg (1022.4 mb) [Sea level pressure: 1022.7 mb]
Winds:from the ESE (110 degrees) at 3 MPH (3 knots; 1.5 m/s)
Visibility: 0.25 sm ( 0.40 km)
Ceiling:100 feet AGL
Clouds: overcast cloud deck at 100 feet AGL
Weather:FG (fog)
QC Flag:automated observation with no human augmentation
Text:KCVO 171123Z AUTO 00000KT 1/4SM FG OVC001 08/07 A3020 RMK AO2 RVRNO
Temperature: 8.0°C ( 46°F)
Dewpoint: 7.0°C ( 45°F) [RH = 93%]
Pressure (altimeter):30.20 inches Hg (1022.8 mb)
Winds:calm
Visibility: 0.25 sm ( 0.40 km)
Ceiling:100 feet AGL
Clouds: overcast cloud deck at 100 feet AGL
Weather:FG (fog)
QC Flag:automated observation with no human augmentation
Text:KCVO 171111Z AUTO 00000KT 1/2SM FG OVC001 08/07 A3020 RMK AO2 RVRNO
Temperature: 8.0°C ( 46°F)
Dewpoint: 7.0°C ( 45°F) [RH = 93%]
Pressure (altimeter):30.20 inches Hg (1022.8 mb)
Winds:calm
Visibility: 0.50 sm ( 0.80 km)
Ceiling:100 feet AGL
Clouds: overcast cloud deck at 100 feet AGL
Weather:FG (fog)
QC Flag:automated observation with no human augmentation
Text:KCVO 171101Z AUTO 00000KT 3/4SM BR OVC001 08/08 A3021 RMK AO2 RVRNO
Temperature: 8.0°C ( 46°F)
Dewpoint: 8.0°C ( 46°F) [RH = 100%]
Pressure (altimeter):30.21 inches Hg (1023.1 mb)
Winds:calm
Visibility: 0.75 sm ( 1.21 km)
Ceiling:100 feet AGL
Clouds: overcast cloud deck at 100 feet AGL
Weather:BR (mist)
QC Flag:automated observation with no human augmentation
Text:KCVO 171056Z AUTO 00000KT 1 1/4SM BR OVC001 08/08 A3021 RMK AO2 SLP231 T00780078
Temperature: 7.8°C ( 46°F)
Dewpoint: 7.8°C ( 46°F) [RH = 100%]
Pressure (altimeter):30.21 inches Hg (1023.1 mb) [Sea level pressure: 1023.1 mb]
Winds:calm
Visibility: 1.25 sm ( 2.01 km)
Ceiling:100 feet AGL
Clouds: overcast cloud deck at 100 feet AGL
Weather:BR (mist)
QC Flag:automated observation with no human augmentation
Text:KCVO 171051Z AUTO 00000KT 3/4SM BR OVC001 08/07 A3021 RMK AO2 RVRNO
Temperature: 8.0°C ( 46°F)
Dewpoint: 7.0°C ( 45°F) [RH = 93%]
Pressure (altimeter):30.21 inches Hg (1023.1 mb)
Winds:calm
Visibility: 0.75 sm ( 1.21 km)
Ceiling:100 feet AGL
Clouds: overcast cloud deck at 100 feet AGL
Weather:BR (mist)
QC Flag:automated observation with no human augmentation
Text:KCVO 170956Z AUTO 20003KT 1/4SM FG OVC001 07/07 A3022 RMK AO2 SLP235 T00720072 RVRNO
Temperature: 7.2°C ( 45°F)
Dewpoint: 7.2°C ( 45°F) [RH = 100%]
Pressure (altimeter):30.22 inches Hg (1023.5 mb) [Sea level pressure: 1023.5 mb]
Winds:from the SSW (200 degrees) at 3 MPH (3 knots; 1.5 m/s)
Visibility: 0.25 sm ( 0.40 km)
Ceiling:100 feet AGL
Clouds: overcast cloud deck at 100 feet AGL
Weather:FG (fog)
QC Flag:automated observation with no human augmentation
Text:KCVO 170911Z AUTO 00000KT 1/4SM FG OVC001 07/07 A3023 RMK AO2 RVRNO
Temperature: 7.0°C ( 45°F)
Dewpoint: 7.0°C ( 45°F) [RH = 100%]
Pressure (altimeter):30.23 inches Hg (1023.8 mb)
Winds:calm
Visibility: 0.25 sm ( 0.40 km)
Ceiling:100 feet AGL
Clouds: overcast cloud deck at 100 feet AGL
Weather:FG (fog)
QC Flag:automated observation with no human augmentation
Text:KCVO 170856Z AUTO 00000KT 1/2SM FG OVC003 07/07 A3024 RMK AO2 SLP243 T00720067 58010 RVRNO
Temperature: 7.2°C ( 45°F)
Dewpoint: 6.7°C ( 44°F) [RH = 97%]
Pressure (altimeter):30.24 inches Hg (1024.1 mb) [Sea level pressure: 1024.3 mb]
Winds:calm
Visibility: 0.50 sm ( 0.80 km)
Ceiling:300 feet AGL
Clouds: overcast cloud deck at 300 feet AGL
Weather:FG (fog)
QC Flag:automated observation with no human augmentation
Text:KCVO 170840Z AUTO 00000KT 1/2SM FG OVC003 07/07 A3024 RMK AO2 RVRNO
Temperature: 7.0°C ( 45°F)
Dewpoint: 7.0°C ( 45°F) [RH = 100%]
Pressure (altimeter):30.24 inches Hg (1024.1 mb)
Winds:calm
Visibility: 0.50 sm ( 0.80 km)
Ceiling:300 feet AGL
Clouds: overcast cloud deck at 300 feet AGL
Weather:FG (fog)
QC Flag:automated observation with no human augmentation
Text:KCVO 170827Z AUTO 29003KT 1/4SM FG OVC003 07/06 A3025 RMK AO2 RVRNO
Temperature: 7.0°C ( 45°F)
Dewpoint: 6.0°C ( 43°F) [RH = 93%]
Pressure (altimeter):30.25 inches Hg (1024.5 mb)
Winds:from the WNW (290 degrees) at 3 MPH (3 knots; 1.5 m/s)
Visibility: 0.25 sm ( 0.40 km)
Ceiling:300 feet AGL
Clouds: overcast cloud deck at 300 feet AGL
Weather:FG (fog)
QC Flag:automated observation with no human augmentation
Text:KCVO 170756Z AUTO 00000KT 1/4SM FG OVC001 07/07 A3025 RMK AO2 SLP245 T00670067 401330033 RVRNO
Temperature: 6.7°C ( 44°F)
Dewpoint: 6.7°C ( 44°F) [RH = 100%]
Pressure (altimeter):30.25 inches Hg (1024.5 mb) [Sea level pressure: 1024.5 mb]
Winds:calm
Visibility: 0.25 sm ( 0.40 km)
Ceiling:100 feet AGL
Clouds: overcast cloud deck at 100 feet AGL
Weather:FG (fog)
QC Flag:automated observation with no human augmentation
Text:KCVO 170747Z AUTO 13004KT 1/4SM FG BKN001 07/06 A3025 RMK AO2 RVRNO
Temperature: 7.0°C ( 45°F)
Dewpoint: 6.0°C ( 43°F) [RH = 93%]
Pressure (altimeter):30.25 inches Hg (1024.5 mb)
Winds:from the SE (130 degrees) at 5 MPH (4 knots; 2.1 m/s)
Visibility: 0.25 sm ( 0.40 km)
Ceiling:100 feet AGL
Clouds: broken clouds at 100 feet AGL
Weather:FG (fog)
QC Flag:automated observation with no human augmentation
Text:KCVO 170740Z AUTO 14006KT 3/4SM BR BKN001 BKN060 06/06 A3024 RMK AO2 CIG 001V004 RVRNO
Temperature: 6.0°C ( 43°F)
Dewpoint: 6.0°C ( 43°F) [RH = 100%]
Pressure (altimeter):30.24 inches Hg (1024.1 mb)
Winds:from the SE (140 degrees) at 7 MPH (6 knots; 3.1 m/s)
Visibility: 0.75 sm ( 1.21 km)
Ceiling:100 feet AGL
Clouds: broken clouds at 100 feet AGL, broken clouds at 6000 feet AGL
Weather:BR (mist)
QC Flag:automated observation with no human augmentation
Text:KCVO 170737Z AUTO 13005KT 1SM BR SCT003 BKN060 06/06 A3025 RMK AO2 RVRNO
Temperature: 6.0°C ( 43°F)
Dewpoint: 6.0°C ( 43°F) [RH = 100%]
Pressure (altimeter):30.25 inches Hg (1024.5 mb)
Winds:from the SE (130 degrees) at 6 MPH (5 knots; 2.6 m/s)
Visibility: 1.00 sm ( 1.61 km)
Ceiling:6000 feet AGL
Clouds: scattered clouds at 300 feet AGL, broken clouds at 6000 feet AGL
Weather:BR (mist)
QC Flag:automated observation with no human augmentation
Text:KCVO 170732Z AUTO 15004KT 2SM BR FEW003 SCT060 06/06 A3025 RMK AO2 VIS 1 1/4V5
Temperature: 6.0°C ( 43°F)
Dewpoint: 6.0°C ( 43°F) [RH = 100%]
Pressure (altimeter):30.25 inches Hg (1024.5 mb)
Winds:from the SSE (150 degrees) at 5 MPH (4 knots; 2.1 m/s)
Visibility: 2.00 sm ( 3.22 km)
Ceiling:at least 12,000 feet AGL
Clouds: few clouds at 300 feet AGL, scattered clouds at 6000 feet AGL
Weather:BR (mist)
QC Flag:automated observation with no human augmentation
Text:KCVO 170723Z AUTO 18003KT 5SM BR SCT060 07/07 A3025 RMK AO2
Temperature: 7.0°C ( 45°F)
Dewpoint: 7.0°C ( 45°F) [RH = 100%]
Pressure (altimeter):30.25 inches Hg (1024.5 mb)
Winds:from the S (180 degrees) at 3 MPH (3 knots; 1.5 m/s)
Visibility: 5 sm ( 8 km)
Ceiling:at least 12,000 feet AGL
Clouds: scattered clouds at 6000 feet AGL
Weather:BR (mist)
QC Flag:automated observation with no human augmentation
Text:KCVO 170712Z AUTO 00000KT 2SM BR SCT060 08/07 A3026 RMK AO2
Temperature: 8.0°C ( 46°F)
Dewpoint: 7.0°C ( 45°F) [RH = 93%]
Pressure (altimeter):30.26 inches Hg (1024.8 mb)
Winds:calm
Visibility: 2.00 sm ( 3.22 km)
Ceiling:at least 12,000 feet AGL
Clouds: scattered clouds at 6000 feet AGL
Weather:BR (mist)
QC Flag:automated observation with no human augmentation
Text:KCVO 170656Z AUTO 25003KT 5SM BR FEW085 07/07 A3026 RMK AO2 SLP250 T00720067
Temperature: 7.2°C ( 45°F)
Dewpoint: 6.7°C ( 44°F) [RH = 97%]
Pressure (altimeter):30.26 inches Hg (1024.8 mb) [Sea level pressure: 1025.0 mb]
Winds:from the WSW (250 degrees) at 3 MPH (3 knots; 1.5 m/s)
Visibility: 5 sm ( 8 km)
Ceiling:at least 12,000 feet AGL
Clouds: few clouds at 8500 feet AGL
Weather:BR (mist)
QC Flag:automated observation with no human augmentation
Text:KCVO 170649Z AUTO 00000KT 2 1/2SM BR FEW085 07/07 A3026 RMK AO2
Temperature: 7.0°C ( 45°F)
Dewpoint: 7.0°C ( 45°F) [RH = 100%]
Pressure (altimeter):30.26 inches Hg (1024.8 mb)
Winds:calm
Visibility: 2.50 sm ( 4.02 km)
Ceiling:at least 12,000 feet AGL
Clouds: few clouds at 8500 feet AGL
Weather:BR (mist)
QC Flag:automated observation with no human augmentation
Text:KCVO 170556Z AUTO 29003KT 10SM CLR 09/08 A3027 RMK AO2 SLP251 T00890083 10128 20083 56008
Temperature: 8.9°C ( 48°F)
Dewpoint: 8.3°C ( 47°F) [RH = 96%]
Pressure (altimeter):30.27 inches Hg (1025.1 mb) [Sea level pressure: 1025.1 mb]
Winds:from the WNW (290 degrees) at 3 MPH (3 knots; 1.5 m/s)
Visibility:10 or more sm (16+ km)
Ceiling:at least 12,000 feet AGL
Clouds:sky clear below 12,000 feet AGL
QC Flag:automated observation with no human augmentation
Text:KCVO 170456Z AUTO 00000KT 10SM CLR 09/09 A3027 RMK AO2 SLP253 T00940089
Temperature: 9.4°C ( 49°F)
Dewpoint: 8.9°C ( 48°F) [RH = 97%]
Pressure (altimeter):30.27 inches Hg (1025.1 mb) [Sea level pressure: 1025.3 mb]
Winds:calm
Visibility:10 or more sm (16+ km)
Ceiling:at least 12,000 feet AGL
Clouds:sky clear below 12,000 feet AGL
QC Flag:automated observation with no human augmentation
Text:KCVO 170356Z AUTO 00000KT 10SM FEW055 SCT070 OVC085 11/10 A3028 RMK AO2 SLP255 T01110100
Temperature: 11.1°C ( 52°F)
Dewpoint: 10.0°C ( 50°F) [RH = 93%]
Pressure (altimeter):30.28 inches Hg (1025.5 mb) [Sea level pressure: 1025.5 mb]
Winds:calm
Visibility:10 or more sm (16+ km)
Ceiling:8500 feet AGL
Clouds: few clouds at 5500 feet AGL, scattered clouds at 7000 feet AGL, overcast cloud deck at 8500 feet AGL
QC Flag:automated observation with no human augmentation
Text:KCVO 170256Z AUTO 00000KT 10SM BKN060 OVC070 12/10 A3029 RMK AO2 SLP259 T01170100 53005
Temperature: 11.7°C ( 53°F)
Dewpoint: 10.0°C ( 50°F) [RH = 89%]
Pressure (altimeter):30.29 inches Hg (1025.8 mb) [Sea level pressure: 1025.9 mb]
Winds:calm
Visibility:10 or more sm (16+ km)
Ceiling:6000 feet AGL
Clouds: broken clouds at 6000 feet AGL, overcast cloud deck at 7000 feet AGL
QC Flag:automated observation with no human augmentation
Text:KCVO 170156Z AUTO 00000KT 10SM OVC060 12/10 A3029 RMK AO2 SLP258 T01220100
Temperature: 12.2°C ( 54°F)
Dewpoint: 10.0°C ( 50°F) [RH = 86%]
Pressure (altimeter):30.29 inches Hg (1025.8 mb) [Sea level pressure: 1025.8 mb]
Winds:calm
Visibility:10 or more sm (16+ km)
Ceiling:6000 feet AGL
Clouds: overcast cloud deck at 6000 feet AGL
QC Flag:automated observation with no human augmentation
Text:KCVO 170056Z AUTO 09003KT 10SM OVC060 12/09 A3028 RMK AO2 SLP253 T01220094
Temperature: 12.2°C ( 54°F)
Dewpoint: 9.4°C ( 49°F) [RH = 83%]
Pressure (altimeter):30.28 inches Hg (1025.5 mb) [Sea level pressure: 1025.3 mb]
Winds:from the E (90 degrees) at 3 MPH (3 knots; 1.5 m/s)
Visibility:10 or more sm (16+ km)
Ceiling:6000 feet AGL
Clouds: overcast cloud deck at 6000 feet AGL
QC Flag:automated observation with no human augmentation
Text:KCVO 162356Z AUTO 08004KT 10SM OVC065 13/10 A3028 RMK AO2 SLP254 T01280100 10133 20094 55007
Temperature: 12.8°C ( 55°F)
Dewpoint: 10.0°C ( 50°F) [RH = 83%]
Pressure (altimeter):30.28 inches Hg (1025.5 mb) [Sea level pressure: 1025.4 mb]
Winds:from the E (80 degrees) at 5 MPH (4 knots; 2.1 m/s)
Visibility:10 or more sm (16+ km)
Ceiling:6500 feet AGL
Clouds: overcast cloud deck at 6500 feet AGL
QC Flag:automated observation with no human augmentation
Text:KCVO 162256Z AUTO 10004KT 10SM FEW070 12/10 A3027 RMK AO2 SLP252 T01220100
Temperature: 12.2°C ( 54°F)
Dewpoint: 10.0°C ( 50°F) [RH = 86%]
Pressure (altimeter):30.27 inches Hg (1025.1 mb) [Sea level pressure: 1025.2 mb]
Winds:from the E (100 degrees) at 5 MPH (4 knots; 2.1 m/s)
Visibility:10 or more sm (16+ km)
Ceiling:at least 12,000 feet AGL
Clouds: few clouds at 7000 feet AGL
QC Flag:automated observation with no human augmentation
Text:KCVO 162156Z AUTO 09004KT 10SM FEW013 OVC080 13/10 A3029 RMK AO2 SLP257 T01280100
Temperature: 12.8°C ( 55°F)
Dewpoint: 10.0°C ( 50°F) [RH = 83%]
Pressure (altimeter):30.29 inches Hg (1025.8 mb) [Sea level pressure: 1025.7 mb]
Winds:from the E (90 degrees) at 5 MPH (4 knots; 2.1 m/s)
Visibility:10 or more sm (16+ km)
Ceiling:8000 feet AGL
Clouds: few clouds at 1300 feet AGL, overcast cloud deck at 8000 feet AGL
QC Flag:automated observation with no human augmentation
Text:KCVO 162142Z AUTO VRB03KT 10SM SCT013 BKN075 BKN085 13/10 A3029 RMK AO2
Temperature: 13.0°C ( 55°F)
Dewpoint: 10.0°C ( 50°F) [RH = 82%]
Pressure (altimeter):30.29 inches Hg (1025.8 mb)
Winds:variable direction winds at 3 MPH (3 knots; 1.5 m/s)
Visibility:10 or more sm (16+ km)
Ceiling:7500 feet AGL
Clouds: scattered clouds at 1300 feet AGL, broken clouds at 7500 feet AGL, broken clouds at 8500 feet AGL
QC Flag:automated observation with no human augmentation
Text:KCVO 162110Z AUTO 10003KT 10SM BKN011 12/11 A3030 RMK AO2
Temperature: 12.0°C ( 54°F)
Dewpoint: 11.0°C ( 52°F) [RH = 94%]
Pressure (altimeter):30.30 inches Hg (1026.2 mb)
Winds:from the E (100 degrees) at 3 MPH (3 knots; 1.5 m/s)
Visibility:10 or more sm (16+ km)
Ceiling:1100 feet AGL
Clouds: broken clouds at 1100 feet AGL
QC Flag:automated observation with no human augmentation
Text:KCVO 162056Z AUTO 09004KT 10SM BKN009 BKN075 BKN095 12/11 A3030 RMK AO2 SLP261 T01220106 58015
Temperature: 12.2°C ( 54°F)
Dewpoint: 10.6°C ( 51°F) [RH = 90%]
Pressure (altimeter):30.30 inches Hg (1026.2 mb) [Sea level pressure: 1026.1 mb]
Winds:from the E (90 degrees) at 5 MPH (4 knots; 2.1 m/s)
Visibility:10 or more sm (16+ km)
Ceiling:900 feet AGL
Clouds: broken clouds at 900 feet AGL, broken clouds at 7500 feet AGL, broken clouds at 9500 feet AGL
QC Flag:automated observation with no human augmentation
Text:KCVO 161956Z AUTO 19004KT 10SM OVC007 11/09 A3032 RMK AO2 SLP268 T01060094
Temperature: 10.6°C ( 51°F)
Dewpoint: 9.4°C ( 49°F) [RH = 92%]
Pressure (altimeter):30.32 inches Hg (1026.8 mb) [Sea level pressure: 1026.8 mb]
Winds:from the S (190 degrees) at 5 MPH (4 knots; 2.1 m/s)
Visibility:10 or more sm (16+ km)
Ceiling:700 feet AGL
Clouds: overcast cloud deck at 700 feet AGL
QC Flag:automated observation with no human augmentation